Praia, Cape Verde
Current Conditions -  °F | °C
As of 3:00 AM on Saturday 29 Nov 2014 (Local Time) from GVNP Reporting Station
Broken Clouds Broken Clouds  
Wind Chill: 22°   Ceiling: 2500
Heat Index: 22°   Visibility: 6mi
Dew Point: 15°   Wind: 7mph
Humidity: 64%   Direction: 20°NNE
Pressure: 29.91"   Gusts: NA
Location:  14.93°N, 23.54°W
Report Text: GVNP 290400Z 02006KT 9999 BKN025 22/15 Q1013 NOSIG
Loading
Personal Weather Stations






























Interactive Weather Map New forecast layout! Learn more

10-Day Weather Forecast

Advertisements
Track Severe Weather on mobile